Time;durP1;ratioP1;P1;durP2;ratioP2;P2;SDS_P1;SDS_P2;PMS_P1;PMS_P2;Temp;Humidity;BMP_temperature;BMP_pressure;BME280_temperature;BME280_humidity;BME280_pressure;Samples;Min_cycle;Max_cycle;Signal;HPM_P1;HPM_P2
2023/06/01 00:00:47;;;;;;;11.80;4.88;;;;;;;20.00;51.74;101303.94;5011765;28;20054;-64
2023/06/01 00:03:15;;;;;;;15.90;4.22;;;;;;;20.15;51.31;101303.94;5012036;28;20104;-64
2023/06/01 00:05:42;;;;;;;9.95;4.07;;;;;;;20.12;51.51;101299.06;5011230;28;20046;-65
2023/06/01 00:08:10;;;;;;;13.82;4.65;;;;;;;19.77;52.96;101301.00;5013030;28;20045;-64
2023/06/01 00:10:37;;;;;;;10.18;4.32;;;;;;;19.74;53.59;101304.53;5012806;28;20052;-64
2023/06/01 00:13:04;;;;;;;20.90;5.40;;;;;;;19.76;53.71;101302.19;5013711;28;20060;-64
2023/06/01 00:15:32;;;;;;;13.35;4.60;;;;;;;19.66;54.28;101285.97;5012629;28;20057;-65
2023/06/01 00:18:00;;;;;;;13.98;4.90;;;;;;;19.52;55.36;101290.34;5029831;28;20057;-64
2023/06/01 00:20:28;;;;;;;12.90;5.40;;;;;;;19.55;55.32;101295.22;5016055;28;20050;-64
2023/06/01 00:22:57;;;;;;;12.57;4.80;;;;;;;19.62;55.25;101296.22;5012197;28;20505;-63
2023/06/01 00:25:24;;;;;;;9.48;4.63;;;;;;;19.47;56.43;101291.44;5007309;28;20049;-64
2023/06/01 00:27:51;;;;;;;14.38;4.72;;;;;;;19.40;56.75;101285.66;5014839;28;20061;-63
2023/06/01 00:30:18;;;;;;;16.45;6.30;;;;;;;19.37;57.04;101282.78;5015033;28;20487;-65
2023/06/01 00:32:46;;;;;;;15.45;5.18;;;;;;;19.52;56.42;101281.97;5016392;28;20065;-64
2023/06/01 00:35:13;;;;;;;13.25;4.80;;;;;;;19.48;57.05;101283.84;5015462;28;20540;-64
2023/06/01 00:37:41;;;;;;;13.60;5.43;;;;;;;19.66;56.29;101285.13;5031402;28;20049;-65
2023/06/01 00:40:08;;;;;;;15.00;5.45;;;;;;;19.46;56.77;101286.19;5016755;28;20053;-63
2023/06/01 00:42:36;;;;;;;13.70;5.30;;;;;;;19.51;57.25;101294.34;5016573;28;20053;-63
2023/06/01 00:45:04;;;;;;;17.27;5.25;;;;;;;19.56;57.62;101297.66;5015328;28;20058;-63
2023/06/01 00:47:40;;;;;;;14.77;5.20;;;;;;;19.29;58.35;101292.91;5015104;28;20409;-64
2023/06/01 00:50:09;;;;;;;17.30;5.75;;;;;;;19.37;58.29;101291.97;5016421;28;20050;-64
2023/06/01 00:52:38;;;;;;;13.07;5.70;;;;;;;19.16;59.29;101299.72;5016489;28;20057;-65
2023/06/01 00:55:06;;;;;;;17.80;6.30;;;;;;;18.91;60.60;101303.81;5016164;28;20065;-63
2023/06/01 00:57:35;;;;;;;;;;;;;;;18.91;61.02;101304.63;5029906;28;20046;-63
2023/06/01 01:00:10;;;;;;;16.63;5.47;;;;;;;19.14;60.78;101309.66;5015549;28;19951;-64
2023/06/01 01:02:38;;;;;;;15.32;5.57;;;;;;;19.14;60.69;101316.03;5008267;28;20053;-63
2023/06/01 01:05:10;;;;;;;21.88;7.25;;;;;;;18.86;61.68;101306.84;5006722;28;20053;-62
2023/06/01 01:07:50;;;;;;;17.00;7.30;;;;;;;18.83;62.48;101304.75;5014168;28;20512;-62
2023/06/01 01:10:37;;;;;;;13.88;6.50;;;;;;;18.72;63.39;101304.47;4996468;28;20046;-63
2023/06/01 01:13:11;;;;;;;17.95;7.25;;;;;;;18.71;63.61;101310.38;5042319;28;20049;-62
2023/06/01 01:15:48;;;;;;;18.25;6.85;;;;;;;18.61;63.97;101303.34;5013138;28;20073;-63
2023/06/01 01:18:37;;;;;;;26.58;6.85;;;;;;;18.68;64.28;101313.88;5015033;28;20050;-63
2023/06/01 01:21:21;;;;;;;16.38;7.90;;;;;;;18.61;64.90;101327.63;4984892;28;20062;-63
2023/06/01 01:24:17;;;;;;;17.77;7.50;;;;;;;18.86;64.23;101323.59;5023627;28;20433;-63
2023/06/01 01:26:59;;;;;;;22.35;8.45;;;;;;;18.68;65.57;101322.25;5014055;28;20049;-63
2023/06/01 01:29:29;;;;;;;21.95;8.98;;;;;;;18.42;66.40;101319.88;5015114;28;20053;-63
2023/06/01 01:32:00;;;;;;;20.65;8.32;;;;;;;18.33;67.14;101312.75;4994489;28;20494;-63
2023/06/01 01:34:28;;;;;;;27.50;8.57;;;;;;;18.39;67.13;101309.41;5007152;28;20049;-63
2023/06/01 01:36:55;;;;;;;19.98;8.88;;;;;;;18.23;67.91;101308.50;5015226;28;20057;-63
2023/06/01 01:39:23;;;;;;;16.92;8.77;;;;;;;18.37;67.63;101313.69;5009063;28;20058;-63
2023/06/01 01:41:50;;;;;;;22.77;8.70;;;;;;;18.23;68.08;101314.06;5012149;28;20057;-63
2023/06/01 01:44:18;;;;;;;24.33;9.88;;;;;;;18.18;68.50;101314.31;5012575;28;20050;-62
2023/06/01 01:47:04;;;;;;;21.00;9.88;;;;;;;18.28;67.96;101319.41;5015040;28;20054;-64
2023/06/01 01:49:41;;;;;;;18.80;9.57;;;;;;;18.01;69.27;101314.53;5046964;28;20050;-63
2023/06/01 01:52:17;;;;;;;20.77;9.52;;;;;;;18.10;69.39;101320.81;5046709;28;20042;-63
2023/06/01 01:54:45;;;;;;;22.35;9.98;;;;;;;18.04;69.47;101321.41;4994441;28;20065;-63
2023/06/01 01:57:16;;;;;;;26.92;9.73;;;;;;;18.15;69.78;101319.78;4998626;28;20195;-63
2023/06/01 01:59:47;;;;;;;24.73;10.30;;;;;;;18.08;69.59;101314.75;5007184;28;20045;-63
2023/06/01 02:02:15;;;;;;;18.73;9.55;;;;;;;18.08;69.95;101316.75;4996699;28;20054;-63
2023/06/01 02:04:45;;;;;;;18.23;9.82;;;;;;;18.17;69.82;101318.25;5014675;28;20061;-63
2023/06/01 02:07:13;;;;;;;;;;;;;;;17.94;70.86;101317.91;5013429;28;20049;-63
2023/06/01 02:09:40;;;;;;;27.55;12.07;;;;;;;17.75;71.68;101311.28;5017337;28;20300;-64
2023/06/01 02:12:11;;;;;;;24.02;10.65;;;;;;;17.90;71.65;101307.81;5028513;28;20077;-64
2023/06/01 02:14:38;;;;;;;25.08;11.20;;;;;;;17.82;71.95;101315.13;5012586;28;20053;-63
2023/06/01 02:17:07;;;;;;;29.77;12.77;;;;;;;17.87;71.92;101305.69;5009119;28;20509;-63
2023/06/01 02:19:34;;;;;;;26.25;11.88;;;;;;;17.85;71.91;101308.06;5017520;28;20051;-63
2023/06/01 02:22:02;;;;;;;23.98;12.00;;;;;;;17.86;72.02;101307.69;5014082;28;20049;-62
2023/06/01 02:24:30;;;;;;;31.27;13.55;;;;;;;17.50;73.82;101298.50;5014328;28;20057;-63
2023/06/01 02:26:57;;;;;;;26.27;12.95;;;;;;;17.39;74.81;101303.66;5029786;28;20054;-64
2023/06/01 02:29:25;;;;;;;25.27;13.40;;;;;;;17.34;74.91;101295.53;5013773;28;20056;-63
2023/06/01 02:31:52;;;;;;;23.02;12.52;;;;;;;17.36;75.13;101309.94;5045234;28;20064;-63
2023/06/01 02:34:20;;;;;;;29.75;13.15;;;;;;;17.44;75.06;101303.44;5013376;28;20057;-63
2023/06/01 02:36:48;;;;;;;27.40;14.80;;;;;;;16.98;76.82;101314.88;5013903;28;20416;-63
2023/06/01 02:39:16;;;;;;;28.40;14.18;;;;;;;16.96;77.31;101305.25;5012920;28;20038;-64
2023/06/01 02:41:44;;;;;;;25.77;14.20;;;;;;;17.05;76.96;101306.78;5013355;28;20050;-64
2023/06/01 02:44:12;;;;;;;31.42;14.45;;;;;;;17.17;76.47;101306.84;5023846;28;20042;-64
2023/06/01 02:46:39;;;;;;;28.35;14.40;;;;;;;17.11;76.84;101312.97;5012559;28;20037;-63
2023/06/01 02:49:07;;;;;;;32.72;15.55;;;;;;;17.00;77.24;101311.78;5012890;28;20038;-63
2023/06/01 02:51:35;;;;;;;34.10;15.85;;;;;;;16.94;77.20;101311.16;5028855;28;20054;-63
2023/06/01 02:54:23;;;;;;;24.67;14.68;;;;;;;17.09;76.57;101307.72;4994250;28;20058;-64
2023/06/01 02:56:52;;;;;;;29.35;15.23;;;;;;;17.11;76.42;101304.59;5045011;28;20050;-63
2023/06/01 02:59:20;;;;;;;31.77;16.55;;;;;;;16.88;77.80;101310.56;5010985;28;20037;-63
2023/06/01 03:01:53;;;;;;;34.28;16.52;;;;;;;16.94;77.70;101308.38;5017339;28;20152;-63
2023/06/01 03:04:20;;;;;;;31.60;15.75;;;;;;;17.05;77.54;101303.22;5044391;28;20050;-63
2023/06/01 03:06:49;;;;;;;31.90;15.20;;;;;;;16.76;78.62;101302.16;5012495;28;20440;-63
2023/06/01 03:09:35;;;;;;;31.83;15.75;;;;;;;16.90;77.69;101310.22;5013712;28;20061;-64
2023/06/01 03:12:33;;;;;;;26.48;16.35;;;;;;;16.79;78.76;101309.81;5008306;28;20050;-63
2023/06/01 03:15:00;;;;;;;30.00;17.00;;;;;;;16.93;78.11;101315.09;5012186;28;20061;-63
2023/06/01 03:17:27;;;;;;;32.75;16.95;;;;;;;16.85;78.59;101300.13;5045339;28;20168;-63
2023/06/01 03:19:55;;;;;;;26.83;16.65;;;;;;;16.72;79.28;101308.72;5025168;28;20046;-63
2023/06/01 03:22:23;;;;;;;33.95;17.15;;;;;;;16.95;78.71;101304.44;4993244;28;20571;-63
2023/06/01 03:24:52;;;;;;;31.65;18.13;;;;;;;16.88;77.83;101312.53;4995980;28;20046;-63
2023/06/01 03:27:25;;;;;;;27.27;17.73;;;;;;;16.50;80.42;101304.34;5007598;28;20038;-63
2023/06/01 03:29:52;;;;;;;29.90;17.30;;;;;;;16.66;80.11;101304.53;5013416;28;20056;-63
2023/06/01 03:32:19;;;;;;;34.88;17.15;;;;;;;16.87;78.96;101310.91;5013306;28;20050;-64
2023/06/01 03:34:48;;;;;;;30.13;17.45;;;;;;;17.00;78.73;101322.91;5012177;28;20077;-64
2023/06/01 03:37:15;;;;;;;34.83;18.90;;;;;;;16.35;81.62;101310.44;5012250;28;20049;-64
2023/06/01 03:39:43;;;;;;;34.55;19.23;;;;;;;16.34;82.43;101319.97;5013522;28;20046;-65
2023/06/01 03:42:12;;;;;;;30.25;18.02;;;;;;;16.45;81.90;101317.59;4995807;28;20060;-64
2023/06/01 03:44:40;;;;;;;35.33;19.30;;;;;;;16.41;81.65;101311.88;4996584;28;20502;-64
2023/06/01 03:47:08;;;;;;;38.80;19.30;;;;;;;16.22;82.99;101321.81;5009189;28;20054;-64
2023/06/01 03:49:36;;;;;;;31.60;18.98;;;;;;;16.14;83.62;101314.38;5007169;28;20060;-63
2023/06/01 03:52:07;;;;;;;33.45;19.23;;;;;;;16.03;84.66;101310.34;5014288;28;20050;-63
2023/06/01 03:54:35;;;;;;;32.40;20.13;;;;;;;16.33;83.46;101314.75;5048598;28;20050;-64
2023/06/01 03:57:05;;;;;;;;;;;;;;;16.54;81.42;101305.31;5049637;28;20050;-62
2023/06/01 03:59:33;;;;;;;44.08;19.92;;;;;;;16.27;82.66;101321.63;5016898;28;20399;-63
2023/06/01 04:02:02;;;;;;;37.83;20.38;;;;;;;16.16;83.25;101326.75;5032736;28;20064;-63
2023/06/01 04:04:32;;;;;;;;;;;;;;;15.98;84.49;101314.13;5015950;28;20057;-62
2023/06/01 04:07:00;;;;;;;33.83;19.95;;;;;;;16.21;83.87;101314.66;5048737;28;19922;-63
2023/06/01 04:09:29;;;;;;;33.88;18.98;;;;;;;16.29;82.92;101327.66;5032058;28;20057;-63
2023/06/01 04:11:56;;;;;;;34.47;19.75;;;;;;;16.03;84.39;101327.00;5007495;28;20050;-64
2023/06/01 04:14:24;;;;;;;35.08;20.63;;;;;;;16.14;84.29;101337.44;5029727;28;20052;-63
2023/06/01 04:16:51;;;;;;;35.88;19.73;;;;;;;16.33;83.48;101314.75;5020989;28;20430;-65
2023/06/01 04:19:18;;;;;;;36.42;20.73;;;;;;;16.29;82.85;101328.50;5016707;28;20076;-67
2023/06/01 04:21:49;;;;;;;34.53;20.38;;;;;;;16.10;84.09;101318.97;5031577;28;20050;-64
2023/06/01 04:24:17;;;;;;;37.53;20.95;;;;;;;16.22;83.57;101325.44;5018076;28;20081;-63
2023/06/01 04:26:45;;;;;;;35.72;21.10;;;;;;;16.36;82.75;101337.13;5015052;28;20053;-64
2023/06/01 04:29:13;;;;;;;37.75;20.90;;;;;;;16.22;83.72;101331.00;5014490;28;20172;-64
2023/06/01 04:31:40;;;;;;;38.85;20.67;;;;;;;16.11;84.49;101326.16;5015754;28;20049;-63
2023/06/01 04:34:09;;;;;;;34.92;20.15;;;;;;;16.56;82.77;101339.13;5011981;28;20058;-63
2023/06/01 04:36:38;;;;;;;38.33;21.05;;;;;;;16.28;82.83;101335.22;4997110;28;20125;-64
2023/06/01 04:39:07;;;;;;;36.97;21.63;;;;;;;16.14;83.65;101337.44;5015294;28;20076;-64
2023/06/01 04:41:37;;;;;;;31.67;20.27;;;;;;;16.28;83.43;101332.44;5013556;28;20046;-63
2023/06/01 04:44:05;;;;;;;34.40;21.38;;;;;;;16.27;82.97;101344.69;5030709;28;20073;-63
2023/06/01 04:46:33;;;;;;;36.47;22.58;;;;;;;16.01;84.56;101338.47;5016446;28;20065;-64
2023/06/01 04:49:01;;;;;;;45.80;21.92;;;;;;;16.25;84.00;101338.66;5046854;28;20053;-63
2023/06/01 04:51:30;;;;;;;36.20;21.33;;;;;;;15.92;84.59;101331.34;5014885;28;20054;-63
2023/06/01 04:53:59;;;;;;;38.00;23.17;;;;;;;16.13;84.53;101348.84;5047911;28;20057;-64
2023/06/01 04:56:29;;;;;;;37.97;22.20;;;;;;;16.22;84.28;101349.63;5016278;28;20049;-64
2023/06/01 04:58:57;;;;;;;35.45;22.25;;;;;;;16.09;83.55;101345.13;5014189;28;20512;-63
2023/06/01 05:01:29;;;;;;;43.20;21.15;;;;;;;16.29;83.54;101353.53;5000363;28;20069;-63
2023/06/01 05:03:58;;;;;;;41.35;23.02;;;;;;;16.39;82.80;101355.91;5010808;28;20062;-65
2023/06/01 05:06:26;;;;;;;36.25;22.33;;;;;;;16.58;81.72;101349.94;5012416;28;20045;-63
2023/06/01 05:08:54;;;;;;;39.03;22.45;;;;;;;16.59;81.16;101348.78;5014843;28;20053;-64
2023/06/01 05:11:22;;;;;;;41.78;22.48;;;;;;;16.63;81.22;101339.41;5014276;28;20525;-64
2023/06/01 05:13:51;;;;;;;39.75;22.75;;;;;;;16.28;82.37;101342.75;5031332;28;20060;-64
2023/06/01 05:16:20;;;;;;;38.25;23.58;;;;;;;16.10;83.93;101346.75;5016059;28;20377;-64
2023/06/01 05:18:50;;;;;;;39.83;22.95;;;;;;;16.24;83.47;101356.50;5014205;28;20226;-63
2023/06/01 05:21:17;;;;;;;40.60;22.67;;;;;;;16.44;82.51;101346.56;5015234;28;20052;-64
2023/06/01 05:23:44;;;;;;;40.58;23.80;;;;;;;16.26;82.43;101365.31;5014036;28;20064;-64
2023/06/01 05:26:12;;;;;;;33.67;22.00;;;;;;;16.28;83.42;101356.63;4997591;28;20057;-64
2023/06/01 05:28:40;;;;;;;36.42;22.42;;;;;;;16.22;83.66;101367.13;5012648;28;20050;-66
2023/06/01 05:31:11;;;;;;;40.15;22.73;;;;;;;16.40;82.25;101363.09;5014185;28;20049;-64
2023/06/01 05:33:43;;;;;;;34.80;21.67;;;;;;;16.41;82.10;101364.72;5045683;28;20506;-63
2023/06/01 05:36:10;;;;;;;39.67;22.70;;;;;;;16.40;81.84;101354.75;5010598;28;20390;-65
2023/06/01 05:38:38;;;;;;;41.50;22.50;;;;;;;16.56;81.90;101364.16;5013816;28;20054;-63
2023/06/01 05:41:06;;;;;;;30.60;21.10;;;;;;;16.99;79.36;101363.84;5028871;28;20061;-63
2023/06/01 05:43:37;;;;;;;38.50;23.17;;;;;;;16.50;80.82;101359.13;5013794;28;20083;-63
2023/06/01 05:46:06;;;;;;;36.78;23.67;;;;;;;16.50;81.13;101362.75;5028761;28;20461;-63
2023/06/01 05:48:34;;;;;;;35.65;22.65;;;;;;;16.43;81.60;101356.88;4996932;28;20536;-64
2023/06/01 05:51:03;;;;;;;37.57;23.20;;;;;;;16.56;81.54;101364.16;5013153;28;20057;-63
2023/06/01 05:53:31;;;;;;;46.03;23.52;;;;;;;16.54;80.88;101363.72;5011177;28;20409;-64
2023/06/01 05:55:58;;;;;;;38.22;23.20;;;;;;;16.50;80.54;101373.03;5010140;28;20057;-63
2023/06/01 05:58:26;;;;;;;42.63;22.90;;;;;;;16.34;82.31;101372.78;5013346;28;20061;-63
2023/06/01 06:00:53;;;;;;;36.05;22.30;;;;;;;16.62;80.97;101367.56;5014869;28;20096;-65
2023/06/01 06:03:22;;;;;;;32.88;22.30;;;;;;;16.73;79.60;101366.84;5012173;28;20053;-64
2023/06/01 06:05:50;;;;;;;39.28;23.50;;;;;;;16.60;80.16;101372.63;4995268;28;20050;-64
2023/06/01 06:08:17;;;;;;;40.03;22.80;;;;;;;16.59;79.74;101374.63;5015177;28;20056;-64
2023/06/01 06:10:44;;;;;;;40.13;23.33;;;;;;;16.21;81.17;101373.03;5014657;28;20061;-63
2023/06/01 06:13:14;;;;;;;31.23;21.67;;;;;;;16.26;82.11;101379.22;5014494;28;20049;-64
2023/06/01 06:15:41;;;;;;;38.90;22.67;;;;;;;16.41;81.27;101364.72;5014219;28;20050;-66
2023/06/01 06:18:09;;;;;;;39.10;22.60;;;;;;;16.49;80.40;101363.09;5013352;28;20077;-65
2023/06/01 06:20:36;;;;;;;41.65;22.67;;;;;;;16.45;80.48;101356.53;5011881;28;20064;-63
2023/06/01 06:23:03;;;;;;;34.35;21.90;;;;;;;16.75;79.26;101380.41;5012020;28;20057;-64
2023/06/01 06:25:31;;;;;;;34.25;20.98;;;;;;;16.40;80.05;101363.09;5015898;28;20046;-63
2023/06/01 06:27:58;;;;;;;35.20;22.50;;;;;;;16.37;80.50;101372.09;5013335;28;20057;-66
2023/06/01 06:30:26;;;;;;;37.92;23.02;;;;;;;16.45;80.53;101370.44;5017826;28;20045;-63
2023/06/01 06:32:53;;;;;;;34.58;22.40;;;;;;;16.52;80.13;101374.34;5022571;28;20057;-63
2023/06/01 06:35:21;;;;;;;37.55;23.27;;;;;;;16.61;79.26;101365.94;5013452;28;20056;-64
2023/06/01 06:37:48;;;;;;;41.38;22.13;;;;;;;16.45;80.46;101357.34;5005570;28;20410;-64
2023/06/01 06:40:17;;;;;;;39.85;22.67;;;;;;;16.72;79.21;101370.75;5014135;28;20075;-64
2023/06/01 06:42:46;;;;;;;43.25;23.60;;;;;;;16.51;79.79;101366.34;5032739;28;20057;-64
2023/06/01 06:45:13;;;;;;;38.92;22.05;;;;;;;16.80;78.83;101369.06;5008907;28;20047;-65
2023/06/01 06:47:41;;;;;;;42.92;22.52;;;;;;;16.72;78.13;101367.16;5019993;28;20045;-63
2023/06/01 06:50:10;;;;;;;34.13;19.70;;;;;;;16.99;79.18;101358.25;5005844;28;20062;-67
2023/06/01 06:52:37;;;;;;;33.47;21.48;;;;;;;17.33;76.65;101354.34;5013382;28;20401;-65
2023/06/01 06:55:06;;;;;;;34.38;20.52;;;;;;;17.40;75.64;101365.75;5012248;28;20080;-65
2023/06/01 06:57:35;;;;;;;43.85;20.63;;;;;;;17.83;74.95;101358.56;5015546;28;20049;-64
2023/06/01 07:00:07;;;;;;;35.28;20.20;;;;;;;18.02;73.41;101357.16;5012361;28;20477;-66
2023/06/01 07:02:35;;;;;;;32.05;20.60;;;;;;;18.39;72.33;101356.81;5008359;28;20069;-66
2023/06/01 07:05:03;;;;;;;36.25;21.85;;;;;;;18.30;71.64;101369.25;5013867;28;20041;-65
2023/06/01 07:07:31;;;;;;;35.63;20.45;;;;;;;17.66;72.69;101366.31;5040427;28;20640;-63
2023/06/01 07:09:58;;;;;;;38.88;21.88;;;;;;;17.20;74.14;101366.59;5010216;28;20057;-64
2023/06/01 07:12:25;;;;;;;40.80;21.55;;;;;;;17.39;73.61;101369.66;5012738;28;20049;-64
2023/06/01 07:14:53;;;;;;;35.72;22.05;;;;;;;17.00;75.12;101376.59;5009638;28;20362;-64
2023/06/01 07:17:21;;;;;;;38.60;21.42;;;;;;;17.31;74.65;101371.38;5017869;28;20052;-65
2023/06/01 07:19:48;;;;;;;33.70;20.42;;;;;;;17.43;73.16;101376.19;5016461;28;20038;-64
2023/06/01 07:22:16;;;;;;;29.85;19.55;;;;;;;17.49;72.92;101367.31;5011720;28;20069;-65
2023/06/01 07:24:44;;;;;;;33.50;21.23;;;;;;;17.72;72.40;101371.31;5016967;28;20060;-64
2023/06/01 07:27:12;;;;;;;34.95;22.30;;;;;;;17.90;71.74;101367.13;5015573;28;20058;-64
2023/06/01 07:29:41;;;;;;;34.05;20.33;;;;;;;18.22;70.28;101373.00;5018501;28;20053;-65
2023/06/01 07:32:08;;;;;;;36.72;20.60;;;;;;;18.17;69.91;101367.63;5025697;28;20052;-64
2023/06/01 07:34:36;;;;;;;34.28;19.75;;;;;;;18.27;69.28;101379.13;5025923;28;20057;-64
2023/06/01 07:37:04;;;;;;;39.72;21.38;;;;;;;18.12;69.59;101371.47;5017053;28;20091;-63
2023/06/01 07:39:43;;;;;;;;;;;;;;;18.66;67.75;101378.44;5023112;28;20123;-64
2023/06/01 07:42:11;;;;;;;33.33;20.00;;;;;;;18.98;67.10;101374.63;5027372;28;19925;-64
2023/06/01 07:44:38;;;;;;;36.97;19.48;;;;;;;18.88;66.26;101377.13;5011139;28;20054;-64
2023/06/01 07:47:05;;;;;;;30.95;19.58;;;;;;;19.20;65.02;101384.44;5048299;28;20050;-66
2023/06/01 07:49:35;;;;;;;30.23;20.27;;;;;;;18.91;66.11;101390.34;5016545;28;20398;-64
2023/06/01 07:52:04;;;;;;;32.97;18.95;;;;;;;19.56;64.17;101395.47;5013339;28;20034;-64
2023/06/01 07:54:33;;;;;;;29.52;19.52;;;;;;;19.33;65.26;101390.81;5015061;28;20061;-64
2023/06/01 07:57:02;;;;;;;29.13;18.70;;;;;;;19.81;63.28;101396.97;5014289;28;20057;-64
2023/06/01 07:59:31;;;;;;;36.78;19.85;;;;;;;19.72;62.91;101410.28;5016230;28;20052;-62
2023/06/01 08:02:00;;;;;;;26.05;18.50;;;;;;;19.47;64.05;101394.84;5014478;28;20049;-63
2023/06/01 08:04:33;;;;;;;27.87;18.60;;;;;;;19.89;62.69;101386.78;5011286;28;20050;-64
2023/06/01 08:07:06;;;;;;;33.72;18.83;;;;;;;19.53;63.38;101396.19;5013071;28;20046;-63
2023/06/01 08:09:37;;;;;;;29.42;17.67;;;;;;;19.43;63.89;101391.13;5032532;28;20046;-64
2023/06/01 08:12:05;;;;;;;31.85;18.48;;;;;;;20.18;61.72;101389.16;5017439;28;20055;-64
2023/06/01 08:14:33;;;;;;;30.50;17.60;;;;;;;20.17;61.47;101381.94;5017798;28;20065;-63
2023/06/01 08:17:02;;;;;;;27.50;17.88;;;;;;;20.15;60.52;101387.84;5023911;28;20050;-64
2023/06/01 08:19:29;;;;;;;32.67;17.95;;;;;;;19.97;62.07;101383.81;5017183;28;20516;-64
2023/06/01 08:21:57;;;;;;;29.92;18.42;;;;;;;19.73;63.35;101383.97;5014515;28;20073;-64
2023/06/01 08:24:24;;;;;;;29.08;18.35;;;;;;;19.79;62.67;101374.13;5015599;28;20053;-64
2023/06/01 08:26:55;;;;;;;25.45;17.45;;;;;;;20.01;62.01;101381.91;5013653;28;20053;-65
2023/06/01 08:29:22;;;;;;;36.42;19.80;;;;;;;19.97;62.18;101388.59;5014502;28;20505;-63
2023/06/01 08:32:08;;;;;;;31.40;18.77;;;;;;;19.57;63.29;101387.91;5012108;28;20494;-64
2023/06/01 08:34:36;;;;;;;30.75;18.60;;;;;;;19.85;63.04;101383.06;5021862;28;20057;-64
2023/06/01 08:37:04;;;;;;;34.67;18.63;;;;;;;19.60;63.10;101379.63;5014321;28;20061;-64
2023/06/01 08:39:31;;;;;;;33.55;18.42;;;;;;;19.60;63.32;101385.19;5017373;28;20050;-63
2023/06/01 08:42:07;;;;;;;30.00;17.08;;;;;;;19.78;63.38;101383.72;5024133;28;20056;-63
2023/06/01 08:44:39;;;;;;;33.95;17.52;;;;;;;20.07;62.82;101374.06;5020755;28;20060;-64
2023/06/01 08:47:07;;;;;;;36.03;17.40;;;;;;;19.96;62.62;101373.78;5014009;28;20084;-65
2023/06/01 08:49:36;;;;;;;30.40;16.98;;;;;;;19.95;62.67;101374.97;5012173;28;20050;-64
2023/06/01 08:52:13;;;;;;;30.73;17.20;;;;;;;19.87;62.30;101367.56;5012264;28;20432;-64
2023/06/01 08:54:41;;;;;;;28.70;16.33;;;;;;;20.11;62.00;101367.38;5017328;28;20064;-63
2023/06/01 08:57:08;;;;;;;25.60;17.35;;;;;;;20.23;61.73;101376.88;5017152;28;20069;-63
2023/06/01 08:59:36;;;;;;;26.80;17.02;;;;;;;20.26;61.12;101371.34;5018391;28;20054;-64
2023/06/01 09:02:04;;;;;;;30.73;16.38;;;;;;;20.32;61.53;101367.13;4999672;28;20050;-64
2023/06/01 09:04:35;;;;;;;29.60;17.77;;;;;;;20.45;60.81;101367.81;5014238;28;20046;-63
2023/06/01 09:07:02;;;;;;;33.38;17.15;;;;;;;20.55;60.72;101356.88;5021424;28;20072;-64
2023/06/01 09:09:29;;;;;;;30.30;17.58;;;;;;;20.60;60.75;101361.38;5008029;28;20057;-65
2023/06/01 09:12:17;;;;;;;27.42;16.90;;;;;;;20.13;61.52;101367.03;5023496;28;20619;-65
2023/06/01 09:14:45;;;;;;;27.48;16.75;;;;;;;20.04;62.12;101364.41;5019798;28;20057;-64
2023/06/01 09:17:23;;;;;;;30.20;16.27;;;;;;;20.28;61.80;101365.41;5014637;28;20587;-65
2023/06/01 09:19:55;;;;;;;29.33;16.80;;;;;;;20.17;61.88;101357.56;5009625;28;20060;-64
2023/06/01 09:22:22;;;;;;;30.35;18.20;;;;;;;20.35;60.95;101358.00;5029380;28;20042;-64
2023/06/01 09:24:57;;;;;;;31.05;17.45;;;;;;;20.28;60.88;101354.19;5017463;28;20052;-65
2023/06/01 09:27:26;;;;;;;29.02;16.33;;;;;;;20.17;61.68;101349.16;5008806;28;20413;-67
2023/06/01 09:29:55;;;;;;;30.85;17.10;;;;;;;20.09;62.19;101343.75;5015868;28;20057;-64
2023/06/01 09:32:22;;;;;;;28.40;17.52;;;;;;;20.33;61.57;101351.16;5017414;28;20050;-65
2023/06/01 09:34:50;;;;;;;26.40;17.52;;;;;;;20.55;60.64;101342.06;5009949;28;20054;-65
2023/06/01 09:37:17;;;;;;;34.53;16.40;;;;;;;20.62;60.67;101339.44;5011446;28;20054;-65
2023/06/01 09:39:45;;;;;;;29.17;16.40;;;;;;;20.30;60.94;101333.09;5025127;28;20097;-64
2023/06/01 09:42:12;;;;;;;27.35;17.23;;;;;;;20.53;60.45;101344.41;5010840;28;20047;-65
2023/06/01 09:44:41;;;;;;;26.83;16.20;;;;;;;20.78;59.46;101334.59;5016538;28;20050;-65
2023/06/01 09:47:11;;;;;;;27.27;16.10;;;;;;;20.96;59.55;101346.97;5019257;28;20050;-66
2023/06/01 09:49:42;;;;;;;33.65;17.23;;;;;;;20.98;58.79;101336.22;5023901;28;20452;-65
2023/06/01 09:52:16;;;;;;;31.98;16.48;;;;;;;20.95;59.01;101329.38;5021370;28;20045;-64
2023/06/01 09:54:47;;;;;;;26.42;15.98;;;;;;;20.97;59.05;101338.19;5012414;28;20060;-64
2023/06/01 09:57:40;;;;;;;32.80;16.35;;;;;;;21.11;58.42;101332.13;5009747;28;20061;-65
2023/06/01 10:00:09;;;;;;;25.10;15.00;;;;;;;20.98;58.59;101330.59;5005035;28;20080;-65
2023/06/01 10:02:40;;;;;;;27.67;16.08;;;;;;;21.00;58.30;101333.88;5007604;28;20054;-64
2023/06/01 10:05:08;;;;;;;24.60;15.75;;;;;;;21.21;58.51;101325.91;5011764;28;20057;-65
2023/06/01 10:07:38;;;;;;;25.75;15.60;;;;;;;21.36;57.37;101336.22;5015746;28;20061;-64
2023/06/01 10:10:06;;;;;;;28.65;16.73;;;;;;;21.23;57.55;101323.56;5017547;28;20061;-65
2023/06/01 10:12:34;;;;;;;29.67;15.02;;;;;;;21.21;57.62;101317.50;5012558;28;20522;-65
2023/06/01 10:15:03;;;;;;;27.55;14.65;;;;;;;21.27;56.61;101330.03;5021179;28;20049;-62
2023/06/01 10:17:49;;;;;;;28.45;14.82;;;;;;;21.38;56.71;101322.63;5014989;28;20054;-63
2023/06/01 10:20:18;;;;;;;26.80;15.32;;;;;;;21.51;56.51;101326.09;5013106;28;20080;-64
2023/06/01 10:22:45;;;;;;;29.67;15.15;;;;;;;21.38;56.86;101325.44;5010889;28;20046;-64
2023/06/01 10:25:15;;;;;;;25.92;15.10;;;;;;;21.43;56.29;101305.50;5019400;28;20062;-64
2023/06/01 10:27:54;;;;;;;24.17;15.77;;;;;;;21.48;55.83;101312.81;5022594;28;20045;-64
2023/06/01 10:30:21;;;;;;;30.55;14.90;;;;;;;21.48;56.38;101316.41;5011232;28;20054;-65
2023/06/01 10:32:49;;;;;;;22.10;13.75;;;;;;;21.62;56.37;101304.66;5008051;28;20045;-64
2023/06/01 10:35:26;;;;;;;22.13;13.23;;;;;;;22.04;54.98;101309.03;5016712;28;20064;-64
2023/06/01 10:38:16;;;;;;;22.90;13.38;;;;;;;22.18;54.11;101308.44;5038239;28;20054;-64
2023/06/01 10:40:45;;;;;;;22.88;13.48;;;;;;;21.99;55.00;101305.72;5025414;28;20619;-64
2023/06/01 10:43:35;;;;;;;25.65;13.73;;;;;;;22.11;54.21;101305.50;5011822;28;20053;-64
2023/06/01 10:46:03;;;;;;;;;;;;;;;21.99;54.02;101306.53;5044139;28;20048;-63
2023/06/01 10:48:54;;;;;;;26.98;13.05;;;;;;;22.16;53.89;101303.19;5015526;28;19929;-66
2023/06/01 10:51:24;;;;;;;26.33;13.05;;;;;;;22.27;53.77;101292.94;5017657;28;20425;-64
2023/06/01 10:53:55;;;;;;;20.38;12.80;;;;;;;22.53;53.26;101296.91;5012059;28;20052;-64
2023/06/01 10:56:26;;;;;;;21.13;12.93;;;;;;;22.51;53.02;101296.50;5020144;28;20061;-64
2023/06/01 10:59:07;;;;;;;22.33;11.63;;;;;;;22.60;52.20;101300.66;5023138;28;20058;-64
2023/06/01 11:01:46;;;;;;;28.38;11.63;;;;;;;22.64;52.07;101303.53;5038604;28;20054;-65
2023/06/01 11:04:14;;;;;;;21.37;11.30;;;;;;;22.47;51.69;101288.03;5020822;28;20057;-65
2023/06/01 11:06:43;;;;;;;23.42;11.68;;;;;;;22.50;51.39;101290.06;5011234;28;20053;-65
2023/06/01 11:09:12;;;;;;;23.50;10.73;;;;;;;22.46;51.50;101277.97;5010426;28;20049;-64
2023/06/01 11:11:50;;;;;;;16.48;10.43;;;;;;;22.67;51.07;101283.09;4995841;28;20042;-64
2023/06/01 11:14:26;;;;;;;21.10;10.73;;;;;;;22.86;49.77;101280.13;5018287;28;20048;-64
2023/06/01 11:16:58;;;;;;;19.80;10.27;;;;;;;23.07;49.04;101281.19;5009964;28;20054;-65
2023/06/01 11:19:26;;;;;;;17.45;10.45;;;;;;;23.09;49.35;101280.81;5019534;28;20045;-66
2023/06/01 11:22:03;;;;;;;18.67;10.38;;;;;;;23.05;48.77;101277.13;5008619;28;20438;-65
2023/06/01 11:24:36;;;;;;;16.60;9.77;;;;;;;23.10;48.70;101271.19;5006103;28;20050;-65